ADDS METAR Data INFO
IDs: Format: Raw Decoded Include TAF

Data at: 1331 UTC 21 Feb 2018

METAR for:KHCR (Heber City Muni, UT, US)
Text:KHCR 211315Z AUTO 00000KT 10SM SCT001 M21/M23 A3012 RMK AO2
Temperature:-21.0°C ( -6°F)
Dewpoint:-23.0°C ( -9°F) [RH = 84%]
Pressure (altimeter):30.12 inches Hg (1020.1 mb)
Winds:calm
Visibility:10 or more sm (16+ km)
Ceiling:at least 12,000 feet AGL
Clouds: scattered clouds at 100 feet AGL
QC Flag:automated observation with no human augmentation